sensor_id;sensor_type;location;lat;lon;timestamp;pressure;altitude;pressure_sealevel;temperature;humidity
70217;BME280;65567;55.684;37.570;2023-02-18T00:01:30;99256.56;;;-5.10;54.94
70217;BME280;65567;55.684;37.570;2023-02-18T00:04:15;99255.63;;;-5.15;55.03
70217;BME280;65567;55.684;37.570;2023-02-18T00:06:59;99252.03;;;-5.31;55.33
70217;BME280;65567;55.684;37.570;2023-02-18T00:09:25;99239.16;;;-5.40;55.42
70217;BME280;65567;55.684;37.570;2023-02-18T00:11:54;99250.41;;;-5.24;55.09
70217;BME280;65567;55.684;37.570;2023-02-18T00:14:20;99243.56;;;-5.27;55.00
70217;BME280;65567;55.684;37.570;2023-02-18T00:16:46;99236.94;;;-5.14;54.70
70217;BME280;65567;55.684;37.570;2023-02-18T00:19:16;99233.38;;;-5.25;54.79
70217;BME280;65567;55.684;37.570;2023-02-18T00:21:42;99231.63;;;-5.29;55.00
70217;BME280;65567;55.684;37.570;2023-02-18T00:24:12;99224.75;;;-5.37;54.99
70217;BME280;65567;55.684;37.570;2023-02-18T00:26:40;99228.16;;;-5.35;55.08
70217;BME280;65567;55.684;37.570;2023-02-18T00:29:24;99231.59;;;-5.33;54.94
70217;BME280;65567;55.684;37.570;2023-02-18T00:31:50;99231.81;;;-5.16;54.16
70217;BME280;65567;55.684;37.570;2023-02-18T00:34:16;99231.50;;;-5.39;54.74
70217;BME280;65567;55.684;37.570;2023-02-18T00:37:01;99217.94;;;-5.35;54.91
70217;BME280;65567;55.684;37.570;2023-02-18T00:39:27;99223.13;;;-5.30;54.59
70217;BME280;65567;55.684;37.570;2023-02-18T00:42:11;99225.50;;;-5.42;55.12
70217;BME280;65567;55.684;37.570;2023-02-18T00:44:38;99224.56;;;-5.48;55.31
70217;BME280;65567;55.684;37.570;2023-02-18T00:47:04;99214.19;;;-5.61;55.53
70217;BME280;65567;55.684;37.570;2023-02-18T00:49:30;99212.69;;;-5.47;55.21
70217;BME280;65567;55.684;37.570;2023-02-18T00:51:56;99213.59;;;-5.42;55.02
70217;BME280;65567;55.684;37.570;2023-02-18T00:54:22;99206.97;;;-5.29;54.73
70217;BME280;65567;55.684;37.570;2023-02-18T00:56:48;99201.91;;;-5.23;54.42
70217;BME280;65567;55.684;37.570;2023-02-18T00:59:14;99210.38;;;-5.28;54.50
70217;BME280;65567;55.684;37.570;2023-02-18T01:01:40;99195.84;;;-5.36;54.63
70217;BME280;65567;55.684;37.570;2023-02-18T01:04:06;99194.00;;;-5.46;54.98
70217;BME280;65567;55.684;37.570;2023-02-18T01:06:33;99182.91;;;-5.48;54.98
70217;BME280;65567;55.684;37.570;2023-02-18T01:09:17;99177.06;;;-5.38;54.78
70217;BME280;65567;55.684;37.570;2023-02-18T01:11:43;99175.31;;;-5.42;54.86
70217;BME280;65567;55.684;37.570;2023-02-18T01:14:09;99172.00;;;-5.35;54.64
70217;BME280;65567;55.684;37.570;2023-02-18T01:16:35;99156.09;;;-5.13;54.11
70217;BME280;65567;55.684;37.570;2023-02-18T01:19:02;99160.31;;;-5.14;53.79
70217;BME280;65567;55.684;37.570;2023-02-18T01:21:29;99148.06;;;-5.43;54.37
70217;BME280;65567;55.684;37.570;2023-02-18T01:23:55;99147.06;;;-5.54;54.84
70217;BME280;65567;55.684;37.570;2023-02-18T01:26:22;99134.13;;;-5.70;55.02
70217;BME280;65567;55.684;37.570;2023-02-18T01:28:49;99132.53;;;-5.61;54.95
70217;BME280;65567;55.684;37.570;2023-02-18T01:31:15;99132.44;;;-5.71;55.01
70217;BME280;65567;55.684;37.570;2023-02-18T01:33:41;99129.72;;;-5.82;55.36
70217;BME280;65567;55.684;37.570;2023-02-18T01:36:09;99123.69;;;-5.87;55.54
70217;BME280;65567;55.684;37.570;2023-02-18T01:38:35;99125.44;;;-5.84;55.46
70217;BME280;65567;55.684;37.570;2023-02-18T01:41:20;99111.75;;;-5.89;55.49
70217;BME280;65567;55.684;37.570;2023-02-18T01:43:46;99122.38;;;-5.58;54.65
70217;BME280;65567;55.684;37.570;2023-02-18T01:46:18;99112.03;;;-5.68;54.60
70217;BME280;65567;55.684;37.570;2023-02-18T01:48:56;99105.94;;;-5.79;54.98
70217;BME280;65567;55.684;37.570;2023-02-18T01:51:27;99102.34;;;-5.93;55.55
70217;BME280;65567;55.684;37.570;2023-02-18T01:57:22;99081.13;;;-5.91;55.52
70217;BME280;65567;55.684;37.570;2023-02-18T02:02:16;99075.34;;;-5.79;55.33
70217;BME280;65567;55.684;37.570;2023-02-18T02:04:43;99071.75;;;-5.92;55.71
70217;BME280;65567;55.684;37.570;2023-02-18T02:07:09;99067.56;;;-5.88;55.64
70217;BME280;65567;55.684;37.570;2023-02-18T02:09:36;99072.13;;;-5.62;55.26
70217;BME280;65567;55.684;37.570;2023-02-18T02:15:48;99070.19;;;-5.82;56.13
70217;BME280;65567;55.684;37.570;2023-02-18T02:27:28;99056.09;;;-5.52;55.36
70217;BME280;65567;55.684;37.570;2023-02-18T02:30:51;99053.53;;;-5.54;55.26
70217;BME280;65567;55.684;37.570;2023-02-18T02:36:30;99062.75;;;-5.64;55.51
70217;BME280;65567;55.684;37.570;2023-02-18T02:42:01;99059.31;;;-5.69;55.68
70217;BME280;65567;55.684;37.570;2023-02-18T02:44:36;99055.91;;;-5.68;55.50
70217;BME280;65567;55.684;37.570;2023-02-18T02:47:09;99051.00;;;-5.52;55.36
70217;BME280;65567;55.684;37.570;2023-02-18T02:53:01;99052.56;;;-5.64;55.55
70217;BME280;65567;55.684;37.570;2023-02-18T02:55:29;99032.88;;;-5.74;55.86
70217;BME280;65567;55.684;37.570;2023-02-18T02:57:55;99030.19;;;-5.86;56.39
70217;BME280;65567;55.684;37.570;2023-02-18T03:00:31;99013.31;;;-5.75;56.22
70217;BME280;65567;55.684;37.570;2023-02-18T03:03:24;99018.19;;;-5.93;56.97
70217;BME280;65567;55.684;37.570;2023-02-18T03:05:59;99014.66;;;-6.08;57.68
70217;BME280;65567;55.684;37.570;2023-02-18T03:11:15;98994.44;;;-5.89;57.33
70217;BME280;65567;55.684;37.570;2023-02-18T03:14:09;99009.66;;;-5.99;57.74
70217;BME280;65567;55.684;37.570;2023-02-18T03:19:38;99003.34;;;-6.28;58.82
70217;BME280;65567;55.684;37.570;2023-02-18T03:30:29;98970.28;;;-6.22;59.62
70217;BME280;65567;55.684;37.570;2023-02-18T03:32:59;98965.31;;;-6.10;59.34
70217;BME280;65567;55.684;37.570;2023-02-18T03:35:28;98953.25;;;-6.26;59.80
70217;BME280;65567;55.684;37.570;2023-02-18T03:39:05;98951.75;;;-6.09;59.58
70217;BME280;65567;55.684;37.570;2023-02-18T03:40:59;98945.06;;;-5.96;59.20
70217;BME280;65567;55.684;37.570;2023-02-18T03:43:25;98963.66;;;-6.08;59.57
70217;BME280;65567;55.684;37.570;2023-02-18T03:45:51;98951.63;;;-6.18;59.96
70217;BME280;65567;55.684;37.570;2023-02-18T03:48:17;98969.59;;;-6.10;60.01
70217;BME280;65567;55.684;37.570;2023-02-18T03:51:01;98939.81;;;-6.13;59.87
70217;BME280;65567;55.684;37.570;2023-02-18T03:53:27;98939.91;;;-6.02;59.81
70217;BME280;65567;55.684;37.570;2023-02-18T03:58:37;98926.06;;;-6.26;60.59
70217;BME280;65567;55.684;37.570;2023-02-18T04:01:04;98926.69;;;-6.44;61.32
70217;BME280;65567;55.684;37.570;2023-02-18T04:03:30;98939.59;;;-6.32;60.80
70217;BME280;65567;55.684;37.570;2023-02-18T04:05:57;98932.09;;;-6.19;60.78
70217;BME280;65567;55.684;37.570;2023-02-18T04:08:23;98912.56;;;-6.20;60.32
70217;BME280;65567;55.684;37.570;2023-02-18T04:10:49;98913.44;;;-6.15;60.34
70217;BME280;65567;55.684;37.570;2023-02-18T04:13:15;98905.84;;;-6.12;60.10
70217;BME280;65567;55.684;37.570;2023-02-18T04:15:44;98911.09;;;-5.92;59.62
70217;BME280;65567;55.684;37.570;2023-02-18T04:18:11;98897.47;;;-6.00;60.12
70217;BME280;65567;55.684;37.570;2023-02-18T04:20:37;98889.09;;;-5.84;59.50
70217;BME280;65567;55.684;37.570;2023-02-18T04:23:03;98882.31;;;-5.80;59.34
70217;BME280;65567;55.684;37.570;2023-02-18T04:25:48;98895.00;;;-5.88;59.24
70217;BME280;65567;55.684;37.570;2023-02-18T04:28:15;98900.81;;;-6.03;59.60
70217;BME280;65567;55.684;37.570;2023-02-18T04:30:45;98880.16;;;-6.31;60.91
70217;BME280;65567;55.684;37.570;2023-02-18T04:33:12;98866.53;;;-6.33;61.67
70217;BME280;65567;55.684;37.570;2023-02-18T04:35:38;98875.34;;;-6.01;60.76
70217;BME280;65567;55.684;37.570;2023-02-18T04:38:08;98880.44;;;-6.00;60.76
70217;BME280;65567;55.684;37.570;2023-02-18T04:40:34;98864.91;;;-6.24;61.42
70217;BME280;65567;55.684;37.570;2023-02-18T04:43:00;98868.41;;;-6.16;61.17
70217;BME280;65567;55.684;37.570;2023-02-18T04:45:27;98870.09;;;-6.15;60.93
70217;BME280;65567;55.684;37.570;2023-02-18T04:50:56;98884.34;;;-6.36;61.41
70217;BME280;65567;55.684;37.570;2023-02-18T04:53:40;98882.72;;;-6.26;61.32
70217;BME280;65567;55.684;37.570;2023-02-18T04:56:25;98874.91;;;-6.43;61.64
70217;BME280;65567;55.684;37.570;2023-02-18T04:58:51;98863.97;;;-6.34;61.56
70217;BME280;65567;55.684;37.570;2023-02-18T05:01:16;98863.81;;;-6.47;61.93
70217;BME280;65567;55.684;37.570;2023-02-18T05:03:42;98869.03;;;-6.36;61.71
70217;BME280;65567;55.684;37.570;2023-02-18T05:06:10;98858.97;;;-6.22;61.18
70217;BME280;65567;55.684;37.570;2023-02-18T05:08:36;98873.25;;;-6.38;62.75
70217;BME280;65567;55.684;37.570;2023-02-18T05:11:08;98851.06;;;-6.48;63.04
70217;BME280;65567;55.684;37.570;2023-02-18T05:13:35;98843.50;;;-6.39;62.86
70217;BME280;65567;55.684;37.570;2023-02-18T05:16:01;98843.72;;;-6.20;62.48
70217;BME280;65567;55.684;37.570;2023-02-18T05:18:45;98847.91;;;-6.25;62.56
70217;BME280;65567;55.684;37.570;2023-02-18T05:21:11;98825.91;;;-6.17;62.09
70217;BME280;65567;55.684;37.570;2023-02-18T05:23:37;98824.28;;;-6.09;62.06
70217;BME280;65567;55.684;37.570;2023-02-18T05:26:03;98847.97;;;-6.19;62.22
70217;BME280;65567;55.684;37.570;2023-02-18T05:28:29;98831.06;;;-6.11;61.97
70217;BME280;65567;55.684;37.570;2023-02-18T05:30:55;98831.09;;;-6.08;62.15
70217;BME280;65567;55.684;37.570;2023-02-18T05:33:21;98823.44;;;-6.09;62.39
70217;BME280;65567;55.684;37.570;2023-02-18T05:35:48;98827.63;;;-6.13;62.22
70217;BME280;65567;55.684;37.570;2023-02-18T05:38:13;98823.56;;;-5.89;61.30
70217;BME280;65567;55.684;37.570;2023-02-18T05:40:40;98807.38;;;-5.99;61.60
70217;BME280;65567;55.684;37.570;2023-02-18T05:43:06;98807.22;;;-6.16;61.92
70217;BME280;65567;55.684;37.570;2023-02-18T05:45:32;98808.97;;;-6.12;61.21
70217;BME280;65567;55.684;37.570;2023-02-18T05:53:45;98796.28;;;-6.04;60.71
70217;BME280;65567;55.684;37.570;2023-02-18T06:01:39;98769.19;;;-5.85;60.69
70217;BME280;65567;55.684;37.570;2023-02-18T06:04:08;98764.94;;;-5.86;60.85
70217;BME280;65567;55.684;37.570;2023-02-18T06:06:34;98769.22;;;-5.81;60.75
70217;BME280;65567;55.684;37.570;2023-02-18T06:09:01;98762.47;;;-5.72;60.32
70217;BME280;65567;55.684;37.570;2023-02-18T06:11:27;98754.00;;;-5.73;60.42
70217;BME280;65567;55.684;37.570;2023-02-18T06:13:53;98746.44;;;-5.57;59.60
70217;BME280;65567;55.684;37.570;2023-02-18T06:16:19;98761.69;;;-5.64;60.31
70217;BME280;65567;55.684;37.570;2023-02-18T06:18:45;98758.25;;;-5.69;60.37
70217;BME280;65567;55.684;37.570;2023-02-18T06:21:11;98748.03;;;-5.73;60.33
70217;BME280;65567;55.684;37.570;2023-02-18T06:23:37;98737.06;;;-5.60;60.02
70217;BME280;65567;55.684;37.570;2023-02-18T06:26:03;98737.00;;;-5.68;60.04
70217;BME280;65567;55.684;37.570;2023-02-18T06:28:29;98727.84;;;-5.35;59.66
70217;BME280;65567;55.684;37.570;2023-02-18T06:30:55;98733.78;;;-5.37;59.36
70217;BME280;65567;55.684;37.570;2023-02-18T06:33:21;98735.56;;;-5.24;58.49
70217;BME280;65567;55.684;37.570;2023-02-18T06:35:58;98736.22;;;-5.60;59.29
70217;BME280;65567;55.684;37.570;2023-02-18T06:38:25;98739.59;;;-5.63;59.62
70217;BME280;65567;55.684;37.570;2023-02-18T06:40:52;98746.38;;;-5.67;58.77
70217;BME280;65567;55.684;37.570;2023-02-18T06:43:18;98747.16;;;-5.75;59.03
70217;BME280;65567;55.684;37.570;2023-02-18T06:48:30;98736.28;;;-5.51;58.72
70217;BME280;65567;55.684;37.570;2023-02-18T06:53:59;98703.22;;;-5.28;57.31
70217;BME280;65567;55.684;37.570;2023-02-18T06:56:43;98693.00;;;-5.23;57.26
70217;BME280;65567;55.684;37.570;2023-02-18T06:59:09;98704.16;;;-5.03;56.83
70217;BME280;65567;55.684;37.570;2023-02-18T07:01:36;98686.31;;;-4.95;56.77
70217;BME280;65567;55.684;37.570;2023-02-18T07:04:02;98688.00;;;-4.91;56.96
70217;BME280;65567;55.684;37.570;2023-02-18T07:06:28;98680.34;;;-4.80;56.45
70217;BME280;65567;55.684;37.570;2023-02-18T07:08:54;98709.31;;;-4.75;56.36
70217;BME280;65567;55.684;37.570;2023-02-18T07:11:20;98686.38;;;-4.62;55.61
70217;BME280;65567;55.684;37.570;2023-02-18T07:13:46;98675.31;;;-4.46;55.16
70217;BME280;65567;55.684;37.570;2023-02-18T07:18:56;98665.09;;;-4.10;53.66
70217;BME280;65567;55.684;37.570;2023-02-18T07:21:22;98654.00;;;-4.08;53.56
70217;BME280;65567;55.684;37.570;2023-02-18T07:23:48;98653.97;;;-3.95;53.44
70217;BME280;65567;55.684;37.570;2023-02-18T07:26:14;98654.81;;;-4.00;53.02
70217;BME280;65567;55.684;37.570;2023-02-18T07:28:40;98641.16;;;-3.80;53.12
70217;BME280;65567;55.684;37.570;2023-02-18T07:31:07;98632.63;;;-3.85;52.61
70217;BME280;65567;55.684;37.570;2023-02-18T07:33:33;98620.75;;;-4.02;53.07
70217;BME280;65567;55.684;37.570;2023-02-18T07:36:01;98624.13;;;-3.86;53.24
70217;BME280;65567;55.684;37.570;2023-02-18T07:38:28;98624.94;;;-3.85;52.57
70217;BME280;65567;55.684;37.570;2023-02-18T07:40:55;98627.56;;;-4.04;53.29
70217;BME280;65567;55.684;37.570;2023-02-18T07:43:22;98627.59;;;-4.16;53.52
70217;BME280;65567;55.684;37.570;2023-02-18T07:45:48;98607.09;;;-4.07;53.33
70217;BME280;65567;55.684;37.570;2023-02-18T07:48:15;98616.41;;;-3.83;52.99
70217;BME280;65567;55.684;37.570;2023-02-18T07:50:43;98601.88;;;-3.70;53.00
70217;BME280;65567;55.684;37.570;2023-02-18T07:55:57;98601.00;;;-3.67;53.01
70217;BME280;65567;55.684;37.570;2023-02-18T07:58:28;98612.09;;;-3.63;52.57
70217;BME280;65567;55.684;37.570;2023-02-18T08:00:55;98615.56;;;-3.80;52.73
70217;BME280;65567;55.684;37.570;2023-02-18T08:03:24;98591.69;;;-3.85;53.34
70217;BME280;65567;55.684;37.570;2023-02-18T08:05:51;98598.56;;;-4.06;53.89
70217;BME280;65567;55.684;37.570;2023-02-18T08:08:20;98621.63;;;-4.21;53.74
70217;BME280;65567;55.684;37.570;2023-02-18T08:10:47;98561.09;;;-4.21;53.94
70217;BME280;65567;55.684;37.570;2023-02-18T08:13:14;98585.81;;;-4.21;54.63
70217;BME280;65567;55.684;37.570;2023-02-18T08:15:40;98571.34;;;-4.38;55.11
70217;BME280;65567;55.684;37.570;2023-02-18T08:18:43;98562.81;;;-4.31;55.38
70217;BME280;65567;55.684;37.570;2023-02-18T08:21:13;98562.00;;;-4.59;55.59
70217;BME280;65567;55.684;37.570;2023-02-18T08:23:39;98565.41;;;-4.68;56.47
70217;BME280;65567;55.684;37.570;2023-02-18T08:28:50;98568.75;;;-4.15;55.98
70217;BME280;65567;55.684;37.570;2023-02-18T08:31:26;98584.97;;;-4.11;55.99
70217;BME280;65567;55.684;37.570;2023-02-18T08:33:54;98538.94;;;-4.29;56.26
70217;BME280;65567;55.684;37.570;2023-02-18T08:36:20;98539.75;;;-4.07;56.17
70217;BME280;65567;55.684;37.570;2023-02-18T08:38:46;98543.94;;;-3.89;55.37
70217;BME280;65567;55.684;37.570;2023-02-18T08:41:13;98531.94;;;-3.75;54.84
70217;BME280;65567;55.684;37.570;2023-02-18T08:43:43;98507.09;;;-3.54;54.70
70217;BME280;65567;55.684;37.570;2023-02-18T08:46:28;98524.28;;;-3.81;55.29
70217;BME280;65567;55.684;37.570;2023-02-18T08:49:31;98527.81;;;-4.05;55.65
70217;BME280;65567;55.684;37.570;2023-02-18T08:51:57;98503.06;;;-4.02;55.75
70217;BME280;65567;55.684;37.570;2023-02-18T08:54:23;98524.31;;;-3.84;55.79
70217;BME280;65567;55.684;37.570;2023-02-18T08:59:51;98509.09;;;-4.23;57.05
70217;BME280;65567;55.684;37.570;2023-02-18T09:02:17;98513.28;;;-3.92;56.30
70217;BME280;65567;55.684;37.570;2023-02-18T09:04:43;98522.66;;;-3.90;56.52
70217;BME280;65567;55.684;37.570;2023-02-18T09:07:09;98486.78;;;-3.85;56.33
70217;BME280;65567;55.684;37.570;2023-02-18T09:09:35;98475.59;;;-3.66;55.99
70217;BME280;65567;55.684;37.570;2023-02-18T09:12:01;98487.66;;;-3.85;56.42
70217;BME280;65567;55.684;37.570;2023-02-18T09:14:27;98489.28;;;-3.76;56.45
70217;BME280;65567;55.684;37.570;2023-02-18T09:17:11;98479.88;;;-3.66;56.02
70217;BME280;65567;55.684;37.570;2023-02-18T09:19:56;98499.47;;;-3.57;55.75
70217;BME280;65567;55.684;37.570;2023-02-18T09:22:21;98470.44;;;-3.58;55.53
70217;BME280;65567;55.684;37.570;2023-02-18T09:25:25;98460.31;;;-3.81;55.92
70217;BME280;65567;55.684;37.570;2023-02-18T09:27:50;98465.41;;;-3.72;56.25
70217;BME280;65567;55.684;37.570;2023-02-18T09:30:16;98455.09;;;-3.59;55.80
70217;BME280;65567;55.684;37.570;2023-02-18T09:32:42;98440.44;;;-3.39;55.53
70217;BME280;65567;55.684;37.570;2023-02-18T09:35:08;98444.59;;;-3.25;55.16
70217;BME280;65567;55.684;37.570;2023-02-18T09:37:34;98427.22;;;-2.89;54.58
70217;BME280;65567;55.684;37.570;2023-02-18T09:40:00;98423.66;;;-2.73;54.93
70217;BME280;65567;55.684;37.570;2023-02-18T09:42:33;98438.22;;;-2.76;54.40
70217;BME280;65567;55.684;37.570;2023-02-18T09:45:03;98421.22;;;-2.87;53.97
70217;BME280;65567;55.684;37.570;2023-02-18T09:47:41;98422.00;;;-2.80;53.58
70217;BME280;65567;55.684;37.570;2023-02-18T09:52:47;98410.13;;;-2.87;53.25
70217;BME280;65567;55.684;37.570;2023-02-18T09:55:33;98399.13;;;-2.99;53.74
70217;BME280;65567;55.684;37.570;2023-02-18T09:58:06;98384.59;;;-2.95;53.98
70217;BME280;65567;55.684;37.570;2023-02-18T10:00:38;98369.88;;;-2.79;53.38
70217;BME280;65567;55.684;37.570;2023-02-18T10:03:23;98419.25;;;-2.61;52.89
70217;BME280;65567;55.684;37.570;2023-02-18T10:05:54;98370.47;;;-2.55;53.07
70217;BME280;65567;55.684;37.570;2023-02-18T10:08:27;98366.53;;;-2.14;52.17
70217;BME280;65567;55.684;37.570;2023-02-18T10:10:53;98358.56;;;-1.92;51.52
70217;BME280;65567;55.684;37.570;2023-02-18T10:13:22;98360.28;;;-1.94;51.12
70217;BME280;65567;55.684;37.570;2023-02-18T10:15:49;98368.66;;;-1.81;50.90
70217;BME280;65567;55.684;37.570;2023-02-18T10:18:38;98357.13;;;-2.12;50.90
70217;BME280;65567;55.684;37.570;2023-02-18T10:21:09;98334.94;;;-2.18;51.41
70217;BME280;65567;55.684;37.570;2023-02-18T10:23:39;98348.66;;;-2.20;50.98
70217;BME280;65567;55.684;37.570;2023-02-18T10:26:11;98323.34;;;-2.45;51.68
70217;BME280;65567;55.684;37.570;2023-02-18T10:28:39;98325.97;;;-2.51;52.03
70217;BME280;65567;55.684;37.570;2023-02-18T10:31:08;98342.78;;;-2.28;51.56
70217;BME280;65567;55.684;37.570;2023-02-18T10:33:51;98327.63;;;-2.45;51.97
70217;BME280;65567;55.684;37.570;2023-02-18T10:36:24;98324.47;;;-2.68;52.35
70217;BME280;65567;55.684;37.570;2023-02-18T10:41:34;98310.88;;;-2.76;52.63
70217;BME280;65567;55.684;37.570;2023-02-18T10:47:08;98304.28;;;-2.94;52.76
70217;BME280;65567;55.684;37.570;2023-02-18T10:49:58;98303.91;;;-2.63;52.80
70217;BME280;65567;55.684;37.570;2023-02-18T10:52:44;98294.88;;;-2.26;52.52
70217;BME280;65567;55.684;37.570;2023-02-18T10:55:14;98312.03;;;-2.32;52.01
70217;BME280;65567;55.684;37.570;2023-02-18T10:57:51;98308.38;;;-2.12;51.38
70217;BME280;65567;55.684;37.570;2023-02-18T11:00:38;98296.59;;;-2.27;51.56
70217;BME280;65567;55.684;37.570;2023-02-18T11:03:17;98285.13;;;-2.04;51.10
70217;BME280;65567;55.684;37.570;2023-02-18T11:05:46;98285.78;;;-1.91;50.85
70217;BME280;65567;55.684;37.570;2023-02-18T11:08:20;98288.03;;;-1.70;50.28
70217;BME280;65567;55.684;37.570;2023-02-18T11:10:47;98279.66;;;-1.83;50.49
70217;BME280;65567;55.684;37.570;2023-02-18T11:13:17;98265.16;;;-1.85;50.48
70217;BME280;65567;55.684;37.570;2023-02-18T11:15:55;98270.88;;;-1.68;50.05
70217;BME280;65567;55.684;37.570;2023-02-18T11:20:57;98256.09;;;-1.53;49.53
70217;BME280;65567;55.684;37.570;2023-02-18T11:23:26;98269.06;;;-1.61;49.43
70217;BME280;65567;55.684;37.570;2023-02-18T11:29:03;98241.88;;;-1.74;49.85
70217;BME280;65567;55.684;37.570;2023-02-18T11:31:24;98254.88;;;-1.82;49.97
70217;BME280;65567;55.684;37.570;2023-02-18T11:33:54;98266.88;;;-1.84;50.16
70217;BME280;65567;55.684;37.570;2023-02-18T11:36:28;98242.19;;;-1.93;50.33
70217;BME280;65567;55.684;37.570;2023-02-18T11:38:57;98232.88;;;-1.98;50.32
70217;BME280;65567;55.684;37.570;2023-02-18T11:41:35;98226.72;;;-2.43;51.29
70217;BME280;65567;55.684;37.570;2023-02-18T11:44:05;98213.22;;;-2.54;51.72
70217;BME280;65567;55.684;37.570;2023-02-18T11:46:32;98233.94;;;-2.70;52.27
70217;BME280;65567;55.684;37.570;2023-02-18T11:49:20;98232.09;;;-2.61;51.86
70217;BME280;65567;55.684;37.570;2023-02-18T11:51:48;98210.88;;;-2.71;52.27
70217;BME280;65567;55.684;37.570;2023-02-18T11:54:26;98217.66;;;-2.67;52.25
70217;BME280;65567;55.684;37.570;2023-02-18T11:57:05;98216.50;;;-2.46;51.77
70217;BME280;65567;55.684;37.570;2023-02-18T11:59:34;98204.78;;;-2.62;51.69
70217;BME280;65567;55.684;37.570;2023-02-18T12:04:42;98203.25;;;-2.76;52.27
70217;BME280;65567;55.684;37.570;2023-02-18T12:08:05;98198.31;;;-2.88;52.87
70217;BME280;65567;55.684;37.570;2023-02-18T12:10:35;98216.06;;;-2.74;52.75
70217;BME280;65567;55.684;37.570;2023-02-18T12:13:27;98193.06;;;-2.80;52.72
70217;BME280;65567;55.684;37.570;2023-02-18T12:16:10;98189.66;;;-2.81;52.93
70217;BME280;65567;55.684;37.570;2023-02-18T12:27:25;98178.50;;;-2.77;52.74
70217;BME280;65567;55.684;37.570;2023-02-18T12:30:32;98160.78;;;-2.92;53.35
70217;BME280;65567;55.684;37.570;2023-02-18T12:41:31;98162.25;;;-2.76;52.49
70217;BME280;65567;55.684;37.570;2023-02-18T12:50:01;98154.03;;;-3.00;53.54
70217;BME280;65567;55.684;37.570;2023-02-18T12:57:38;98164.28;;;-3.00;53.38
70217;BME280;65567;55.684;37.570;2023-02-18T13:08:48;98137.66;;;-2.89;53.30
70217;BME280;65567;55.684;37.570;2023-02-18T13:14:39;98120.13;;;-3.17;53.43
70217;BME280;65567;55.684;37.570;2023-02-18T13:17:11;98139.97;;;-3.35;54.15
70217;BME280;65567;55.684;37.570;2023-02-18T13:19:54;98121.16;;;-3.32;54.12
70217;BME280;65567;55.684;37.570;2023-02-18T13:22:24;98140.75;;;-3.29;54.18
70217;BME280;65567;55.684;37.570;2023-02-18T13:24:55;98142.81;;;-3.56;54.89
70217;BME280;65567;55.684;37.570;2023-02-18T13:35:31;98111.97;;;-3.49;54.81
70217;BME280;65567;55.684;37.570;2023-02-18T13:40:46;98106.13;;;-3.57;54.69
70217;BME280;65567;55.684;37.570;2023-02-18T13:43:31;98103.56;;;-3.58;54.73
70217;BME280;65567;55.684;37.570;2023-02-18T13:46:07;98121.44;;;-3.52;54.90
70217;BME280;65567;55.684;37.570;2023-02-18T13:49:03;98093.41;;;-3.65;55.21
70217;BME280;65567;55.684;37.570;2023-02-18T13:54:28;98088.28;;;-3.61;55.36
70217;BME280;65567;55.684;37.570;2023-02-18T13:57:06;98083.78;;;-3.45;54.87
70217;BME280;65567;55.684;37.570;2023-02-18T14:07:24;98083.78;;;-3.45;54.94
70217;BME280;65567;55.684;37.570;2023-02-18T14:09:56;98065.91;;;-3.50;55.25
70217;BME280;65567;55.684;37.570;2023-02-18T14:13:24;98065.91;;;-3.47;55.20
70217;BME280;65567;55.684;37.570;2023-02-18T14:31:28;98075.44;;;-3.58;55.55
70217;BME280;65567;55.684;37.570;2023-02-18T14:34:29;98049.94;;;-3.66;55.89
70217;BME280;65567;55.684;37.570;2023-02-18T14:40:14;98059.78;;;-3.38;55.15
70217;BME280;65567;55.684;37.570;2023-02-18T14:45:59;98037.94;;;-3.62;55.92
70217;BME280;65567;55.684;37.570;2023-02-18T14:51:06;98057.97;;;-3.28;54.88
70217;BME280;65567;55.684;37.570;2023-02-18T14:53:39;98034.28;;;-3.43;55.24
70217;BME280;65567;55.684;37.570;2023-02-18T14:56:09;98026.63;;;-3.44;55.08
70217;BME280;65567;55.684;37.570;2023-02-18T14:58:41;98051.63;;;-3.65;55.62
70217;BME280;65567;55.684;37.570;2023-02-18T15:01:20;98027.13;;;-3.83;55.88
70217;BME280;65567;55.684;37.570;2023-02-18T15:03:52;98040.03;;;-3.92;56.22
70217;BME280;65567;55.684;37.570;2023-02-18T15:08:53;98033.03;;;-3.79;55.97
70217;BME280;65567;55.684;37.570;2023-02-18T15:11:30;98031.59;;;-4.02;56.60
70217;BME280;65567;55.684;37.570;2023-02-18T15:14:00;98020.41;;;-3.93;56.35
70217;BME280;65567;55.684;37.570;2023-02-18T15:16:30;98003.19;;;-3.79;56.00
70217;BME280;65567;55.684;37.570;2023-02-18T15:19:12;98009.22;;;-3.83;56.04
70217;BME280;65567;55.684;37.570;2023-02-18T15:21:44;97991.41;;;-3.92;56.42
70217;BME280;65567;55.684;37.570;2023-02-18T15:24:18;97999.78;;;-3.81;56.21
70217;BME280;65567;55.684;37.570;2023-02-18T15:26:47;97992.13;;;-3.83;56.39
70217;BME280;65567;55.684;37.570;2023-02-18T15:29:22;97995.44;;;-3.76;56.31
70217;BME280;65567;55.684;37.570;2023-02-18T15:31:49;97998.00;;;-3.76;56.37
70217;BME280;65567;55.684;37.570;2023-02-18T15:34:36;97981.66;;;-3.66;56.38
70217;BME280;65567;55.684;37.570;2023-02-18T15:37:09;97985.19;;;-3.73;56.63
70217;BME280;65567;55.684;37.570;2023-02-18T15:39:36;97973.13;;;-3.65;56.29
70217;BME280;65567;55.684;37.570;2023-02-18T15:45:21;97986.31;;;-3.92;57.02
70217;BME280;65567;55.684;37.570;2023-02-18T15:47:54;97969.94;;;-3.80;56.77
70217;BME280;65567;55.684;37.570;2023-02-18T15:50:35;97960.44;;;-3.72;56.64
70217;BME280;65567;55.684;37.570;2023-02-18T15:53:15;97977.59;;;-3.79;56.64
70217;BME280;65567;55.684;37.570;2023-02-18T15:55:46;97979.31;;;-3.81;56.80
70217;BME280;65567;55.684;37.570;2023-02-18T15:58:27;97961.50;;;-3.87;56.95
70217;BME280;65567;55.684;37.570;2023-02-18T16:00:56;97965.72;;;-3.83;56.72
70217;BME280;65567;55.684;37.570;2023-02-18T16:03:27;97952.69;;;-3.66;56.31
70217;BME280;65567;55.684;37.570;2023-02-18T16:06:22;97960.38;;;-3.68;56.06
70217;BME280;65567;55.684;37.570;2023-02-18T16:11:37;97936.69;;;-3.80;56.66
70217;BME280;65567;55.684;37.570;2023-02-18T16:14:03;97939.94;;;-3.69;56.31
70217;BME280;65567;55.684;37.570;2023-02-18T16:16:35;97953.44;;;-3.59;55.95
70217;BME280;65567;55.684;37.570;2023-02-18T16:19:01;97940.75;;;-3.67;56.13
70217;BME280;65567;55.684;37.570;2023-02-18T16:21:35;97943.34;;;-3.69;56.18